San Martin de las Escobas, Argentina
Current Conditions -  °F | °C
As of 1:00 PM on Thursday 27 Nov 2014 (Local Time) from SAAR Reporting Station
Clear Clear  
Wind Chill: 82°   Ceiling: Unl
Heat Index: 82°   Visibility: 6mi
Dew Point: 54°   Wind: 9mph
Humidity: 37%   Direction: 50°NE
Pressure: 29.97"   Gusts: NA
Location:  31.85°S, 61.58°W
Report Text: SAAR 271600Z 05008KT CAVOK 28/12 Q1015
Loading
Personal Weather Stations






























Interactive Weather Map New forecast layout! Learn more

10-Day Weather Forecast

Advertisements
Track Severe Weather on mobile